createdAt,value
2022-08-25T16:09:10.648Z,6.90
2022-08-25T16:12:14.181Z,6.30
2022-08-25T16:15:18.510Z,7.10
2022-08-25T16:18:27.541Z,9.95
2022-08-25T16:21:36.431Z,4.03
2022-08-25T16:24:46.272Z,5.28
2022-08-25T16:27:49.814Z,4.53
2022-08-25T16:30:53.229Z,8.47
2022-08-25T16:33:58.357Z,6.82
2022-08-25T16:37:02.166Z,5.68
2022-08-25T16:40:05.849Z,5.82
2022-08-25T16:43:10.691Z,7.87
2022-08-25T16:46:15.957Z,7.43
2022-08-25T16:49:20.469Z,6.68
2022-08-25T16:52:47.125Z,6.70
2022-08-25T16:56:02.150Z,4.32
2022-08-25T16:59:07.881Z,6.20
2022-08-25T17:02:10.902Z,5.07
2022-08-25T17:05:13.952Z,4.18
2022-08-25T17:08:30.538Z,4.18
2022-08-25T17:11:37.198Z,3.90
2022-08-25T17:14:40.216Z,6.27
2022-08-25T17:17:44.089Z,5.20
2022-08-25T17:20:51.232Z,4.15
2022-08-25T17:23:56.432Z,6.85
2022-08-25T17:26:59.898Z,2.72
2022-08-25T17:30:05.904Z,4.40
2022-08-25T17:33:09.993Z,5.60
2022-08-25T17:36:17.193Z,6.13
2022-08-25T17:39:22.793Z,4.13
2022-08-25T17:42:25.664Z,4.38
2022-08-25T17:45:34.051Z,4.73
2022-08-25T17:48:39.209Z,7.23
2022-08-25T17:51:47.394Z,4.40
2022-08-25T17:54:53.079Z,4.60
2022-08-25T17:57:59.805Z,3.60
2022-08-25T18:01:05.142Z,4.73
2022-08-25T18:04:08.252Z,4.73
2022-08-25T18:07:21.004Z,3.03
2022-08-25T18:10:24.833Z,4.70
2022-08-25T18:13:28.735Z,2.53
2022-08-25T18:16:33.285Z,5.77
2022-08-25T18:19:37.482Z,3.13
2022-08-25T18:22:43.949Z,2.70
2022-08-25T18:25:49.843Z,2.92
2022-08-25T18:28:53.506Z,3.95
2022-08-25T18:32:00.365Z,1.80
2022-08-25T18:35:05.364Z,4.17
2022-08-25T18:38:28.112Z,3.28
2022-08-25T18:41:37.390Z,2.33
2022-08-25T18:44:46.089Z,5.40
2022-08-25T18:47:56.609Z,4.00
2022-08-25T18:51:01.840Z,2.27
2022-08-25T18:54:06.207Z,3.28
2022-08-25T18:57:09.464Z,2.75
2022-08-25T19:00:16.471Z,3.55
2022-08-25T19:03:23.375Z,1.97
2022-08-25T19:06:26.999Z,2.07
2022-08-25T19:09:31.582Z,1.60
2022-08-25T19:12:36.710Z,2.63
2022-08-25T19:15:42.555Z,2.85
2022-08-25T19:18:46.590Z,6.17
2022-08-25T19:21:51.060Z,2.93
2022-08-25T19:24:53.998Z,3.05
2022-08-25T19:27:59.415Z,1.95
2022-08-25T19:31:05.456Z,1.98
2022-08-25T19:34:13.512Z,2.33
2022-08-25T19:37:18.868Z,1.97
2022-08-25T19:40:23.544Z,1.17
2022-08-25T19:43:27.299Z,3.30
2022-08-25T19:46:38.188Z,3.42
2022-08-25T19:49:42.271Z,2.90
2022-08-25T19:52:46.705Z,2.40
2022-08-25T19:55:53.629Z,3.63
2022-08-25T19:58:56.596Z,3.85
2022-08-25T20:02:01.099Z,4.45
2022-08-25T20:05:05.829Z,2.37
2022-08-25T20:08:09.687Z,2.90
2022-08-25T20:11:13.450Z,1.80
2022-08-25T20:14:17.212Z,4.07
2022-08-25T20:17:24.839Z,2.47
2022-08-25T20:20:32.596Z,1.80
2022-08-25T20:23:55.845Z,2.70
2022-08-25T20:26:59.535Z,1.38
2022-08-25T20:30:07.023Z,1.70
2022-08-25T20:33:09.944Z,1.70
2022-08-25T20:36:16.645Z,1.13
2022-08-25T20:39:22.016Z,0.97
2022-08-25T20:42:25.738Z,0.90
2022-08-25T20:45:30.291Z,5.65
2022-08-25T20:48:34.413Z,3.33
2022-08-25T20:51:38.289Z,2.00
2022-08-25T20:54:41.386Z,0.80
2022-08-25T20:57:50.532Z,2.50
2022-08-25T21:00:53.485Z,1.85
2022-08-25T21:03:56.348Z,3.17
2022-08-25T21:07:02.704Z,1.90
2022-08-25T21:10:10.341Z,2.20
2022-08-25T21:13:14.989Z,2.72
2022-08-25T21:16:18.455Z,1.30
2022-08-25T21:19:26.825Z,2.13
2022-08-25T21:22:36.049Z,1.90
2022-08-25T21:25:42.872Z,2.60
2022-08-25T21:28:47.857Z,4.18
2022-08-25T21:31:52.425Z,2.03
2022-08-25T21:34:56.756Z,2.30
2022-08-25T21:37:59.993Z,2.47
2022-08-25T21:41:11.283Z,3.60
2022-08-25T21:44:15.424Z,4.18
2022-08-25T21:47:21.538Z,2.88
2022-08-25T21:50:25.052Z,2.60
2022-08-25T21:53:28.736Z,1.20
2022-08-25T21:56:33.358Z,2.53
2022-08-25T21:59:43.649Z,4.97
2022-08-25T22:02:47.923Z,1.58
2022-08-25T22:05:52.329Z,5.22
2022-08-25T22:08:55.221Z,3.07
2022-08-25T22:12:00.502Z,5.10
2022-08-25T22:15:06.657Z,9.45
2022-08-25T22:18:09.780Z,6.10
2022-08-25T22:21:14.339Z,9.07
2022-08-25T22:24:18.579Z,2.70
2022-08-25T22:27:23.771Z,7.40
2022-08-25T22:30:29.618Z,8.00
2022-08-25T22:33:33.205Z,13.52
2022-08-25T22:36:39.118Z,9.00
2022-08-25T22:39:43.417Z,9.03
2022-08-25T22:42:48.202Z,12.93
2022-08-25T22:46:01.179Z,6.35
2022-08-25T22:49:05.474Z,5.35
2022-08-25T22:52:12.988Z,6.82
2022-08-25T22:55:17.066Z,8.97
2022-08-25T22:58:20.023Z,8.33
2022-08-25T23:01:23.085Z,10.50
2022-08-25T23:04:26.552Z,10.25
2022-08-25T23:07:30.444Z,3.50
2022-08-25T23:10:34.513Z,5.27
2022-08-25T23:13:39.162Z,3.73
2022-08-25T23:16:45.986Z,4.20
2022-08-25T23:19:49.295Z,6.50
2022-08-25T23:22:53.504Z,3.35
2022-08-25T23:25:57.431Z,5.77
2022-08-25T23:29:00.485Z,7.07
